Centerhill, Florida
Current Conditions -  °F | °C
As of 4:53 PM on Sunday 25 Jan 2015 (Local Time) from KLEE Reporting Station
Clear Clear  
Wind Chill: 62°   Ceiling: Unl
Heat Index: 62°   Visibility: 10mi
Dew Point: 43°   Wind: 7mph
Humidity: 50%   Direction: 270°W
Pressure: 29.97"   Gusts: NA
Location:  28.6964°N, 82.0038°W
Report Text: KLEE 252153Z 27006KT 10SM CLR 17/06 A2997 RMK AO2 SLP148 T01670061
Loading
Personal Weather Stations






























Interactive Weather Map New forecast layout! Learn more

10-Day Weather Forecast

Advertisements
Track Severe Weather on mobile